Time;durP1;ratioP1;P1;durP2;ratioP2;P2;SDS_P1;SDS_P2;PMS_P1;PMS_P2;Temp;Humidity;BMP_temperature;BMP_pressure;BME280_temperature;BME280_humidity;BME280_pressure;Samples;Min_cycle;Max_cycle;Signal;HPM_P1;HPM_P2
2022/06/06 00:00:44;;;;;;;3.30;3.00;;;;;;;14.81;100.00;98272.97;5055105;28;20210;-73
2022/06/06 00:03:10;;;;;;;4.20;2.73;;;;;;;14.93;100.00;98259.50;5054790;28;20690;-74
2022/06/06 00:05:37;;;;;;;5.43;2.90;;;;;;;14.94;100.00;98265.63;5053348;28;20569;-74
2022/06/06 00:08:04;;;;;;;3.40;2.93;;;;;;;14.97;100.00;98268.88;5054642;28;20709;-75
2022/06/06 00:10:31;;;;;;;3.10;2.67;;;;;;;14.91;100.00;98258.75;5054707;28;20613;-75
2022/06/06 00:12:59;;;;;;;3.57;2.83;;;;;;;14.92;100.00;98256.94;5054684;28;20219;-74
2022/06/06 00:15:25;;;;;;;3.23;2.90;;;;;;;14.89;100.00;98262.53;5054583;28;20225;-73
2022/06/06 00:17:52;;;;;;;4.10;2.70;;;;;;;14.93;100.00;98263.97;5054964;28;20218;-73
2022/06/06 00:20:18;;;;;;;3.30;2.60;;;;;;;14.90;100.00;98266.91;5054589;28;20225;-73
2022/06/06 00:22:45;;;;;;;3.07;2.77;;;;;;;14.90;100.00;98269.56;5054696;28;20240;-74
2022/06/06 00:25:11;;;;;;;2.77;2.57;;;;;;;14.91;100.00;98257.94;5054409;28;20222;-74
2022/06/06 00:27:38;;;;;;;3.53;3.23;;;;;;;14.93;100.00;98262.16;5054363;28;20225;-73
2022/06/06 00:30:07;;;;;;;3.10;2.80;;;;;;;14.89;100.00;98267.84;5054533;28;20219;-73
2022/06/06 00:35:20;;;;;;;3.40;3.10;;;;;;;14.83;100.00;98271.88;5053473;28;20221;-74
2022/06/06 00:37:48;;;;;;;6.73;3.10;;;;;;;14.84;100.00;98268.25;5054206;28;20254;-75
2022/06/06 00:40:16;;;;;;;4.50;3.13;;;;;;;14.85;100.00;98266.44;5047404;28;20215;-73
2022/06/06 00:42:43;;;;;;;4.63;3.03;;;;;;;14.83;100.00;98261.22;5054058;28;20245;-73
2022/06/06 00:45:30;;;;;;;4.03;3.07;;;;;;;14.82;100.00;98267.53;5054072;28;20223;-72
2022/06/06 00:48:06;;;;;;;7.27;3.40;;;;;;;14.79;100.00;98256.31;5053841;28;20254;-73
2022/06/06 00:50:38;;;;;;;3.50;3.20;;;;;;;14.74;100.00;98250.53;5054026;28;20695;-73
2022/06/06 00:53:07;;;;;;;5.10;2.80;;;;;;;14.75;100.00;98257.53;5054119;28;20216;-73
2022/06/06 00:55:39;;;;;;;3.30;3.00;;;;;;;14.70;100.00;98257.91;5054155;28;20215;-73
2022/06/06 00:58:10;;;;;;;3.67;3.23;;;;;;;14.63;100.00;98250.56;5052286;28;20673;-73
2022/06/06 01:00:40;;;;;;;3.60;3.30;;;;;;;14.58;100.00;98248.31;5053670;28;20241;-72
2022/06/06 01:03:08;;;;;;;4.30;2.80;;;;;;;14.50;100.00;98247.25;5053786;28;20243;-73
2022/06/06 01:05:36;;;;;;;3.33;3.03;;;;;;;14.44;100.00;98239.78;5053674;28;20685;-72
2022/06/06 01:08:04;;;;;;;3.50;3.20;;;;;;;14.42;100.00;98242.56;5053785;28;20712;-73
2022/06/06 01:10:31;;;;;;;3.93;3.00;;;;;;;14.40;100.00;98238.34;5053090;28;20611;-73
2022/06/06 01:12:58;;;;;;;6.63;3.43;;;;;;;14.43;100.00;98238.09;5053558;28;20224;-74
2022/06/06 01:15:29;;;;;;;3.93;3.63;;;;;;;14.39;100.00;98239.31;5053653;28;20219;-73
2022/06/06 01:18:05;;;;;;;4.80;3.67;;;;;;;14.37;100.00;98243.91;5053584;28;20218;-73
2022/06/06 01:21:01;;;;;;;5.87;3.43;;;;;;;14.34;100.00;98239.69;5052763;28;20229;-73
2022/06/06 01:23:53;;;;;;;4.10;3.70;;;;;;;14.33;100.00;98235.34;5051514;28;20696;-73
2022/06/06 01:26:33;;;;;;;3.47;3.17;;;;;;;14.43;100.00;98235.44;5053515;28;20298;-73
2022/06/06 01:29:05;;;;;;;3.93;3.47;;;;;;;14.41;100.00;98235.56;5053200;28;20714;-73
2022/06/06 01:31:39;;;;;;;4.17;3.77;;;;;;;14.38;100.00;98240.28;5053405;28;20214;-73
2022/06/06 01:34:09;;;;;;;4.00;3.60;;;;;;;14.33;100.00;98232.69;5053418;28;20707;-73
2022/06/06 01:36:39;;;;;;;4.43;3.27;;;;;;;14.32;100.00;98230.16;5053215;28;20302;-74
2022/06/06 01:39:09;;;;;;;3.97;3.67;;;;;;;14.27;100.00;98224.38;5053432;28;20222;-74
2022/06/06 01:41:43;;;;;;;3.80;3.50;;;;;;;14.19;100.00;98225.00;5053019;28;20698;-74
2022/06/06 01:44:20;;;;;;;3.90;3.53;;;;;;;14.20;100.00;98220.53;5052906;28;20234;-73
2022/06/06 01:46:48;;;;;;;4.33;3.60;;;;;;;14.19;100.00;98218.84;5053293;28;20271;-73
2022/06/06 01:49:16;;;;;;;3.97;3.57;;;;;;;14.16;100.00;98214.59;5051162;28;20675;-73
2022/06/06 01:51:43;;;;;;;4.27;3.87;;;;;;;14.17;100.00;98224.25;5052887;28;20228;-73
2022/06/06 01:54:10;;;;;;;3.67;3.37;;;;;;;14.15;100.00;98218.22;5053172;28;20572;-73
2022/06/06 01:56:40;;;;;;;6.17;4.53;;;;;;;14.08;100.00;98217.03;5053072;28;20218;-74
2022/06/06 01:59:06;;;;;;;4.67;3.80;;;;;;;14.11;100.00;98210.63;5053175;28;20218;-73
2022/06/06 02:01:34;;;;;;;4.90;4.20;;;;;;;14.07;100.00;98203.88;5053017;28;20210;-73
2022/06/06 02:04:01;;;;;;;4.57;4.13;;;;;;;14.05;100.00;98206.66;5053021;28;20217;-73
2022/06/06 02:06:27;;;;;;;4.33;3.93;;;;;;;14.10;100.00;98208.91;5052552;28;20221;-73
2022/06/06 02:08:54;;;;;;;7.47;4.13;;;;;;;14.10;100.00;98208.91;5052981;28;20220;-73
2022/06/06 02:11:20;;;;;;;4.50;4.10;;;;;;;14.09;100.00;98202.78;5052853;28;20210;-73
2022/06/06 02:13:47;;;;;;;5.37;4.20;;;;;;;14.04;100.00;98201.44;5052734;28;20221;-73
2022/06/06 02:16:14;;;;;;;4.20;3.80;;;;;;;14.02;100.00;98206.91;5050966;28;20672;-73
2022/06/06 02:18:42;;;;;;;4.30;3.90;;;;;;;14.01;100.00;98207.88;5052904;28;20209;-72
2022/06/06 02:21:08;;;;;;;6.97;4.30;;;;;;;14.00;100.00;98208.00;5056726;28;20223;-73
2022/06/06 02:23:36;;;;;;;4.37;3.97;;;;;;;13.99;100.00;98217.78;5049756;28;20240;-72
2022/06/06 02:26:03;;;;;;;4.73;4.00;;;;;;;13.95;100.00;98208.38;5056574;28;20698;-73
2022/06/06 02:28:29;;;;;;;4.73;4.03;;;;;;;13.89;100.00;98210.69;5056919;28;20214;-73
2022/06/06 02:30:56;;;;;;;4.83;4.33;;;;;;;13.89;100.00;98205.38;5056533;28;20217;-73
2022/06/06 02:33:22;;;;;;;4.53;4.13;;;;;;;13.87;100.00;98202.00;5056735;28;20210;-73
2022/06/06 02:35:50;;;;;;;4.40;4.00;;;;;;;13.86;100.00;98194.97;5056763;28;20248;-73
2022/06/06 02:38:17;;;;;;;4.90;4.10;;;;;;;13.83;100.00;98206.72;5056788;28;20245;-73
2022/06/06 02:40:44;;;;;;;6.17;4.00;;;;;;;13.83;100.00;98189.94;5056283;28;20754;-73
2022/06/06 02:43:12;;;;;;;5.17;4.53;;;;;;;13.79;100.00;98199.09;5054862;28;20245;-73
2022/06/06 02:45:39;;;;;;;5.67;4.57;;;;;;;13.82;100.00;98201.53;5056367;28;20223;-73
2022/06/06 02:48:08;;;;;;;5.07;4.57;;;;;;;13.80;100.00;98211.41;5049470;28;20217;-73
2022/06/06 02:50:35;;;;;;;5.33;4.43;;;;;;;13.68;100.00;98215.09;5056543;28;20268;-73
2022/06/06 02:53:03;;;;;;;4.70;4.20;;;;;;;13.58;100.00;98212.28;5056427;28;20492;-73
2022/06/06 02:55:31;;;;;;;4.90;4.30;;;;;;;13.52;100.00;98214.59;5056289;28;20220;-73
2022/06/06 02:58:00;;;;;;;4.90;4.40;;;;;;;13.44;100.00;98225.84;5056128;28;20301;-72
2022/06/06 03:00:29;;;;;;;5.10;4.60;;;;;;;13.39;100.00;98228.00;5056299;28;20220;-74
2022/06/06 03:02:55;;;;;;;6.07;4.37;;;;;;;13.38;100.00;98220.19;5048895;28;20236;-74
2022/06/06 03:05:22;;;;;;;5.30;4.60;;;;;;;13.35;100.00;98226.56;5056105;28;20240;-73
2022/06/06 03:08:05;;;;;;;5.73;4.50;;;;;;;13.37;100.00;98223.78;5054548;28;20218;-73
2022/06/06 03:10:44;;;;;;;4.70;4.30;;;;;;;13.32;100.00;98233.94;5056133;28;20252;-73
2022/06/06 03:13:26;;;;;;;5.33;4.83;;;;;;;13.26;100.00;98234.41;5055652;28;20698;-73
2022/06/06 03:22:14;;;;;;;4.93;4.40;;;;;;;13.22;100.00;98236.47;5052776;28;20240;-73
2022/06/06 03:24:57;;;;;;;6.40;5.07;;;;;;;13.26;100.00;98245.03;5049748;28;20577;-73
2022/06/06 03:27:43;;;;;;;6.07;4.97;;;;;;;13.33;100.00;98254.19;5048264;28;20266;-75
2022/06/06 03:30:20;;;;;;;5.47;4.97;;;;;;;13.40;100.00;98263.38;5055582;28;20214;-72
2022/06/06 03:32:58;;;;;;;5.60;5.10;;;;;;;13.42;100.00;98264.09;5055817;28;20220;-73
2022/06/06 03:35:36;;;;;;;5.63;4.67;;;;;;;13.44;100.00;98264.84;5048766;28;20592;-73
2022/06/06 03:38:06;;;;;;;6.17;5.47;;;;;;;13.45;100.00;98263.88;5055486;28;20327;-73
2022/06/06 03:40:42;;;;;;;5.77;5.20;;;;;;;13.45;100.00;98263.88;5055713;28;20209;-74
2022/06/06 03:43:22;;;;;;;6.27;5.47;;;;;;;13.51;100.00;98268.69;5048341;28;20232;-73
2022/06/06 03:45:55;;;;;;;5.33;4.83;;;;;;;13.57;100.00;98273.53;5055321;28;20225;-73
2022/06/06 03:48:29;;;;;;;6.67;4.87;;;;;;;13.57;100.00;98262.91;5055634;28;20245;-73
2022/06/06 03:51:04;;;;;;;6.10;5.43;;;;;;;13.60;100.00;98278.56;5055242;28;20710;-73
2022/06/06 03:53:39;;;;;;;5.40;4.60;;;;;;;13.63;100.00;98265.06;5055354;28;20609;-74
2022/06/06 03:56:18;;;;;;;6.83;4.70;;;;;;;13.64;100.00;98274.72;5048695;28;20220;-74
2022/06/06 03:58:47;;;;;;;6.20;5.00;;;;;;;13.69;100.00;98262.75;5055127;28;20224;-74
2022/06/06 04:01:15;;;;;;;5.57;5.00;;;;;;;13.73;100.00;98263.34;5053355;28;20584;-72
2022/06/06 04:03:45;;;;;;;5.73;5.23;;;;;;;13.75;100.00;98264.91;5053617;28;20245;-73
2022/06/06 04:06:11;;;;;;;6.77;4.70;;;;;;;13.82;100.00;98270.59;5054838;28;20611;-73
2022/06/06 04:08:38;;;;;;;5.30;4.83;;;;;;;13.85;100.00;98265.03;5055001;28;20216;-73
2022/06/06 04:11:25;;;;;;;5.93;4.53;;;;;;;13.88;100.00;98267.47;5054713;28;20226;-73
2022/06/06 04:14:02;;;;;;;5.17;4.57;;;;;;;13.92;100.00;98268.88;5049083;28;20599;-73
2022/06/06 04:16:40;;;;;;;6.30;4.40;;;;;;;13.98;100.00;98263.06;5054915;28;20210;-73
2022/06/06 04:19:17;;;;;;;5.13;4.50;;;;;;;14.04;100.00;98267.88;5054485;28;20214;-73
2022/06/06 04:21:51;;;;;;;5.83;5.23;;;;;;;14.09;100.00;98268.38;5048772;28;20212;-73
2022/06/06 04:24:34;;;;;;;5.30;4.80;;;;;;;14.13;100.00;98267.16;5054611;28;20244;-73
2022/06/06 04:27:12;;;;;;;5.10;4.60;;;;;;;14.19;100.00;98272.00;5052610;28;20232;-73
2022/06/06 04:29:52;;;;;;;5.40;4.90;;;;;;;14.23;100.00;98270.81;5054447;28;20222;-73
2022/06/06 04:32:29;;;;;;;5.00;4.50;;;;;;;14.27;100.00;98262.44;5053898;28;20205;-73
2022/06/06 04:35:02;;;;;;;5.20;4.70;;;;;;;14.30;100.00;98264.84;5054260;28;20215;-73
2022/06/06 04:37:36;;;;;;;5.10;4.60;;;;;;;14.38;100.00;98258.91;5054246;28;20246;-73
2022/06/06 04:40:12;;;;;;;6.57;4.80;;;;;;;14.50;100.00;98260.53;5054455;28;20224;-73
2022/06/06 04:42:48;;;;;;;5.80;5.00;;;;;;;14.56;100.00;98255.56;5053941;28;20245;-73
2022/06/06 04:45:22;;;;;;;5.33;4.90;;;;;;;14.69;100.00;98256.22;5051639;28;20694;-73
2022/06/06 04:47:50;;;;;;;5.93;5.33;;;;;;;14.84;100.00;98256.78;5053990;28;20209;-73
2022/06/06 04:50:19;;;;;;;5.90;5.40;;;;;;;14.98;100.00;98257.25;5054281;28;20562;-73
2022/06/06 04:52:49;;;;;;;6.00;5.40;;;;;;;15.20;100.00;98256.28;5052411;28;20219;-74
2022/06/06 04:55:18;;;;;;;5.63;5.03;;;;;;;15.57;100.00;98262.84;5053781;28;20213;-74
2022/06/06 04:57:48;;;;;;;6.07;5.47;;;;;;;15.77;100.00;98272.59;5053692;28;20219;-73
2022/06/06 05:00:17;;;;;;;6.07;5.43;;;;;;;15.94;100.00;98269.28;5053974;28;20227;-73
2022/06/06 05:02:43;;;;;;;8.63;5.17;;;;;;;16.23;100.00;98271.88;5052643;28;20242;-73
2022/06/06 05:05:11;;;;;;;5.50;5.00;;;;;;;16.67;100.00;98266.06;5053622;28;20689;-74
2022/06/06 05:07:54;;;;;;;5.70;4.27;;;;;;;17.05;100.00;98271.38;5053921;28;20216;-73
2022/06/06 05:10:32;;;;;;;6.50;5.13;;;;;;;17.54;100.00;98279.16;5053874;28;20223;-73
2022/06/06 05:13:14;;;;;;;5.53;4.00;;;;;;;18.24;100.00;98279.38;5053703;28;20636;-73
2022/06/06 05:15:57;;;;;;;3.80;3.50;;;;;;;18.79;100.00;98296.25;5047310;28;20216;-73
2022/06/06 05:18:36;;;;;;;3.63;3.33;;;;;;;19.64;100.00;98290.06;5052052;28;20220;-73
2022/06/06 05:21:20;;;;;;;4.93;3.17;;;;;;;20.98;98.04;98297.97;5053383;28;20212;-74
2022/06/06 05:24:12;;;;;;;3.10;2.80;;;;;;;22.17;87.72;98301.56;5053303;28;20239;-74
2022/06/06 05:26:58;;;;;;;3.47;3.17;;;;;;;22.96;81.81;98304.84;5047301;28;20215;-73
2022/06/06 05:29:51;;;;;;;3.37;2.80;;;;;;;22.52;83.04;98311.00;5046470;28;20226;-74
2022/06/06 05:32:51;;;;;;;2.90;2.50;;;;;;;21.67;88.20;98319.00;5050501;28;20216;-73
2022/06/06 05:35:25;;;;;;;3.07;2.83;;;;;;;20.91;92.38;98320.34;5046367;28;20216;-74
2022/06/06 05:38:04;;;;;;;2.93;2.73;;;;;;;20.39;95.57;98319.66;5052879;28;20239;-75
2022/06/06 05:40:37;;;;;;;3.97;2.80;;;;;;;20.04;97.93;98314.44;5053331;28;20216;-73
2022/06/06 05:43:22;;;;;;;3.00;2.80;;;;;;;19.72;99.79;98325.00;5053023;28;20605;-73
2022/06/06 05:46:01;;;;;;;3.40;3.10;;;;;;;19.44;100.00;98326.13;5053218;28;20219;-74
2022/06/06 05:48:45;;;;;;;3.30;3.00;;;;;;;19.33;100.00;98318.34;5053246;28;20220;-73
2022/06/06 05:51:23;;;;;;;3.27;2.97;;;;;;;19.35;100.00;98311.00;5047673;28;20220;-73
2022/06/06 05:54:33;;;;;;;4.23;3.23;;;;;;;19.60;100.00;98318.22;5050849;28;20222;-74
2022/06/06 05:57:25;;;;;;;3.30;3.00;;;;;;;20.50;97.22;98318.53;5046980;28;20216;-72
2022/06/06 06:00:16;;;;;;;3.33;3.00;;;;;;;21.52;91.47;98326.88;5052573;28;20220;-73
2022/06/06 06:03:13;;;;;;;4.57;2.87;;;;;;;22.52;83.82;98321.78;5050762;28;20224;-71
2022/06/06 06:05:55;;;;;;;4.03;3.50;;;;;;;23.23;79.57;98317.81;5050125;28;20220;-72
2022/06/06 06:08:37;;;;;;;3.13;2.50;;;;;;;23.79;75.36;98325.44;5051937;28;20211;-72
2022/06/06 06:11:12;;;;;;;4.10;2.83;;;;;;;23.79;74.93;98330.84;5049053;28;20212;-69
2022/06/06 06:13:50;;;;;;;2.87;2.67;;;;;;;23.75;76.04;98334.91;5048489;28;20215;-70
2022/06/06 06:16:19;;;;;;;3.17;2.90;;;;;;;23.43;76.96;98335.22;5047808;28;20219;-71
2022/06/06 06:18:52;;;;;;;3.27;2.90;;;;;;;22.80;79.39;98352.66;5040717;28;20211;-70
2022/06/06 06:21:24;;;;;;;3.70;2.47;;;;;;;22.24;81.82;98340.22;5043248;28;20677;-70
2022/06/06 06:23:57;;;;;;;2.67;2.47;;;;;;;21.92;83.87;98344.84;5043842;28;20249;-71
2022/06/06 06:26:25;;;;;;;3.10;2.90;;;;;;;21.67;85.52;98344.06;5044986;28;20220;-71
2022/06/06 06:28:54;;;;;;;2.83;2.60;;;;;;;21.34;86.76;98347.72;5052700;28;20208;-72
2022/06/06 06:31:32;;;;;;;3.93;2.97;;;;;;;21.03;88.12;98340.50;5052653;28;20208;-72
2022/06/06 06:34:14;;;;;;;3.23;3.00;;;;;;;21.02;89.47;98334.28;5052635;28;20699;-73
2022/06/06 06:36:45;;;;;;;4.77;3.17;;;;;;;21.11;90.07;98344.06;5050573;28;20212;-73
2022/06/06 06:39:30;;;;;;;3.10;2.80;;;;;;;21.17;89.71;98345.22;5052598;28;20216;-73
2022/06/06 06:42:14;;;;;;;4.27;3.63;;;;;;;21.34;88.24;98355.81;5052751;28;20301;-73
2022/06/06 06:44:46;;;;;;;3.27;2.97;;;;;;;21.49;87.52;98359.53;5052639;28;20236;-72
2022/06/06 06:47:19;;;;;;;2.87;2.60;;;;;;;21.78;86.73;98367.09;5052724;28;20223;-73
2022/06/06 06:49:49;;;;;;;3.53;3.00;;;;;;;22.24;85.33;98377.91;5052720;28;20585;-73
2022/06/06 06:52:32;;;;;;;4.70;3.30;;;;;;;22.72;83.28;98369.69;5052349;28;20232;-73
2022/06/06 06:55:10;;;;;;;4.30;3.03;;;;;;;23.02;80.32;98379.63;5045362;28;20222;-74
2022/06/06 06:58:00;;;;;;;4.20;3.20;;;;;;;23.15;79.05;98379.88;5052465;28;20217;-72
2022/06/06 07:00:29;;;;;;;3.10;2.80;;;;;;;23.18;78.84;98378.72;5052107;28;20215;-73
2022/06/06 07:09:16;;;;;;;9.30;3.40;;;;;;;23.73;76.67;98384.69;5051723;28;20252;-73
2022/06/06 07:11:59;;;;;;;3.17;2.90;;;;;;;23.55;78.11;98387.72;5049805;28;20219;-74
2022/06/06 07:14:46;;;;;;;2.90;2.70;;;;;;;23.07;79.02;98377.25;5055821;28;20213;-73
2022/06/06 07:17:14;;;;;;;3.00;2.70;;;;;;;22.73;82.03;98379.44;5055819;28;20677;-73
2022/06/06 07:19:45;;;;;;;4.03;2.70;;;;;;;22.58;82.95;98370.44;5055758;28;20687;-73
2022/06/06 07:22:14;;;;;;;3.17;2.80;;;;;;;22.63;82.72;98373.44;5055694;28;20219;-73
2022/06/06 07:24:43;;;;;;;3.43;3.13;;;;;;;22.69;82.89;98370.06;5055591;28;20239;-73
2022/06/06 07:27:11;;;;;;;3.43;3.07;;;;;;;22.72;82.88;98371.53;5055835;28;20213;-73
2022/06/06 07:29:38;;;;;;;3.73;2.93;;;;;;;22.73;83.65;98365.16;5054186;28;20208;-73
2022/06/06 07:32:22;;;;;;;3.07;2.87;;;;;;;22.75;84.69;98365.81;5055338;28;20653;-73
2022/06/06 07:35:09;;;;;;;3.90;3.00;;;;;;;22.72;83.70;98356.22;5055857;28;20294;-74
2022/06/06 07:37:52;;;;;;;3.27;2.97;;;;;;;22.84;84.80;98353.94;5055707;28;20241;-73
2022/06/06 07:40:31;;;;;;;3.33;3.03;;;;;;;23.09;83.99;98352.78;5055306;28;20695;-76
2022/06/06 07:43:16;;;;;;;4.00;2.93;;;;;;;23.34;82.93;98351.66;5055274;28;20208;-74
2022/06/06 07:45:47;;;;;;;3.73;3.00;;;;;;;23.43;80.60;98351.41;5055665;28;20216;-73
2022/06/06 07:48:45;;;;;;;3.33;2.90;;;;;;;23.49;77.64;98339.88;5055553;28;20222;-73
2022/06/06 07:51:20;;;;;;;3.40;3.10;;;;;;;23.47;77.11;98339.19;5050509;28;20323;-74
2022/06/06 07:53:55;;;;;;;3.20;2.90;;;;;;;23.51;77.95;98339.69;5047761;28;20215;-73
2022/06/06 07:56:33;;;;;;;2.80;2.60;;;;;;;23.49;75.43;98342.59;5054581;28;20583;-73
2022/06/06 07:59:09;;;;;;;3.37;3.07;;;;;;;23.60;77.19;98347.50;5055129;28;20731;-74
2022/06/06 08:01:47;;;;;;;3.80;3.47;;;;;;;23.64;74.43;98339.94;5055030;28;20704;-73
2022/06/06 08:04:25;;;;;;;3.50;3.13;;;;;;;23.54;73.50;98337.44;5055169;28;20242;-74
2022/06/06 08:07:04;;;;;;;3.47;2.83;;;;;;;23.61;75.02;98335.72;5055199;28;20208;-74
2022/06/06 08:09:47;;;;;;;3.87;3.50;;;;;;;23.73;77.37;98342.38;5046752;28;20573;-73
2022/06/06 08:12:42;;;;;;;3.37;3.07;;;;;;;23.93;77.44;98342.69;5055054;28;20212;-73
2022/06/06 08:15:17;;;;;;;3.50;3.20;;;;;;;24.16;76.86;98341.59;5054603;28;20666;-73
2022/06/06 08:18:04;;;;;;;3.13;2.93;;;;;;;24.41;75.67;98340.28;5053914;28;20222;-74
2022/06/06 08:20:39;;;;;;;3.63;2.90;;;;;;;24.59;74.77;98329.97;5046551;28;20208;-73
2022/06/06 08:23:09;;;;;;;3.50;3.10;;;;;;;24.47;69.93;98325.19;5054970;28;20215;-73
2022/06/06 08:25:37;;;;;;;3.53;2.97;;;;;;;24.47;71.29;98331.44;5054440;28;20689;-74
2022/06/06 08:28:06;;;;;;;3.40;3.10;;;;;;;24.56;67.42;98318.66;5054713;28;20214;-73
2022/06/06 08:30:35;;;;;;;4.57;3.17;;;;;;;24.77;66.81;98318.72;5054484;28;20582;-73
2022/06/06 08:33:02;;;;;;;2.83;2.63;;;;;;;24.83;69.13;98316.13;5054570;28;20266;-74
2022/06/06 08:35:39;;;;;;;3.13;2.90;;;;;;;24.87;68.38;98316.56;5054596;28;20220;-74
2022/06/06 08:38:30;;;;;;;3.13;2.83;;;;;;;24.73;63.42;98330.94;5047168;28;20240;-74
2022/06/06 08:41:14;;;;;;;3.00;2.80;;;;;;;24.54;64.93;98332.34;5054501;28;20218;-74
2022/06/06 08:44:03;;;;;;;3.17;2.87;;;;;;;24.22;64.27;98323.81;5054365;28;20258;-74
2022/06/06 08:46:58;;;;;;;3.40;3.10;;;;;;;23.94;67.45;98318.22;5049594;28;20208;-74
2022/06/06 08:52:53;;;;;;;2.63;2.43;;;;;;;23.50;62.19;98311.03;5051342;28;20214;-73
2022/06/06 08:55:57;;;;;;;3.37;2.30;;;;;;;23.73;62.95;98315.38;5054332;28;20219;-73
2022/06/06 08:58:49;;;;;;;2.90;2.60;;;;;;;24.09;61.34;98315.53;5052012;28;20234;-74
2022/06/06 09:01:32;;;;;;;2.70;2.50;;;;;;;24.57;61.25;98310.38;5054149;28;20220;-74
2022/06/06 09:04:23;;;;;;;2.70;2.40;;;;;;;24.92;61.67;98306.84;5053861;28;20232;-73
2022/06/06 09:07:26;;;;;;;2.73;2.53;;;;;;;25.22;60.92;98311.13;5045992;28;20254;-73
2022/06/06 09:10:20;;;;;;;2.27;2.07;;;;;;;25.29;58.14;98309.34;5048886;28;20294;-74
2022/06/06 09:13:25;;;;;;;2.30;2.10;;;;;;;25.10;56.08;98306.41;5046374;28;20212;-74
2022/06/06 09:16:26;;;;;;;4.27;2.40;;;;;;;24.83;57.18;98308.00;5049706;28;20218;-74
2022/06/06 09:19:46;;;;;;;2.27;1.97;;;;;;;24.33;56.99;98302.53;5049593;28;20218;-74
2022/06/06 09:22:58;;;;;;;2.00;1.80;;;;;;;24.15;55.51;98293.16;4991962;28;20214;-74
2022/06/06 09:25:36;;;;;;;2.40;1.67;;;;;;;23.86;57.40;98299.38;4960456;28;20237;-75
2022/06/06 09:29:01;;;;;;;2.17;1.80;;;;;;;23.90;59.77;98295.28;5035916;28;20216;-74
2022/06/06 09:31:58;;;;;;;2.47;2.00;;;;;;;23.94;58.93;98291.22;5048092;28;20211;-74
2022/06/06 09:35:09;;;;;;;2.57;2.00;;;;;;;23.94;60.79;98285.81;5047298;28;20213;-74
2022/06/06 09:37:54;;;;;;;2.27;1.97;;;;;;;23.91;60.10;98288.91;5026522;28;20251;-74
2022/06/06 09:40:34;;;;;;;2.53;1.80;;;;;;;23.82;62.50;98286.41;5044950;28;20222;-74
2022/06/06 09:43:09;;;;;;;2.37;2.17;;;;;;;23.60;59.33;98287.34;5046064;28;20230;-77
2022/06/06 09:46:14;;;;;;;2.57;1.90;;;;;;;23.47;60.45;98277.16;5052898;28;20235;-74
2022/06/06 09:49:17;;;;;;;2.13;2.00;;;;;;;23.37;58.41;98281.97;5012859;28;20208;-74
2022/06/06 09:52:06;;;;;;;2.23;2.10;;;;;;;23.43;61.85;98285.78;5053477;28;20218;-74
2022/06/06 10:01:53;;;;;;;1.90;1.80;;;;;;;23.87;57.89;98290.28;5019023;28;20253;-74
2022/06/06 10:04:59;;;;;;;2.00;1.83;;;;;;;24.00;55.58;98284.22;5050866;28;20698;-75
2022/06/06 10:07:58;;;;;;;1.97;1.87;;;;;;;23.88;57.48;98281.16;5052707;28;20216;-74
2022/06/06 10:11:19;;;;;;;2.20;2.00;;;;;;;23.91;58.49;98271.84;5053038;28;20223;-74
2022/06/06 10:13:59;;;;;;;2.00;1.90;;;;;;;23.55;56.67;98269.00;5024920;28;20256;-74
2022/06/06 10:16:44;;;;;;;2.10;1.90;;;;;;;23.37;56.58;98262.25;5045481;28;20211;-74
2022/06/06 10:19:44;;;;;;;2.33;2.10;;;;;;;23.05;56.66;98260.63;5052679;28;20220;-74
2022/06/06 10:22:39;;;;;;;3.23;1.90;;;;;;;23.05;59.46;98257.94;5052919;28;20215;-74
2022/06/06 10:25:35;;;;;;;2.17;1.83;;;;;;;23.37;59.92;98255.00;5052705;28;20615;-74
2022/06/06 10:28:13;;;;;;;2.10;1.90;;;;;;;23.75;58.39;98263.88;5051397;28;20223;-75
2022/06/06 10:30:55;;;;;;;2.00;1.90;;;;;;;24.24;58.46;98249.66;5051127;28;20589;-75
2022/06/06 10:33:48;;;;;;;2.27;2.07;;;;;;;24.87;55.05;98249.78;5052446;28;20261;-75
2022/06/06 10:36:30;;;;;;;1.90;1.80;;;;;;;25.38;54.30;98245.94;5046437;28;20216;-74
2022/06/06 10:39:43;;;;;;;1.93;1.83;;;;;;;25.53;51.21;98243.16;5052170;28;20239;-75
2022/06/06 10:42:41;;;;;;;3.57;1.80;;;;;;;25.62;50.25;98248.22;5026807;28;20213;-75
2022/06/06 10:45:31;;;;;;;2.77;1.70;;;;;;;26.25;50.26;98245.28;5049660;28;20239;-75
2022/06/06 10:48:16;;;;;;;2.13;1.70;;;;;;;26.58;51.99;98246.25;5049844;28;20215;-75
2022/06/06 10:54:16;;;;;;;1.63;1.53;;;;;;;26.25;49.83;98239.84;5056357;28;20253;-74
2022/06/06 10:57:17;;;;;;;1.70;1.60;;;;;;;26.13;49.86;98236.06;5046433;28;20222;-74
2022/06/06 11:00:08;;;;;;;1.87;1.50;;;;;;;26.00;48.46;98241.41;5049262;28;20219;-75
2022/06/06 11:03:08;;;;;;;2.20;1.80;;;;;;;25.56;48.66;98235.47;5038958;28;20219;-74
2022/06/06 11:06:27;;;;;;;2.10;2.00;;;;;;;25.30;51.60;98234.44;5056306;28;20297;-75
2022/06/06 11:09:36;;;;;;;2.10;1.80;;;;;;;25.67;51.33;98228.66;5037345;28;20212;-74
2022/06/06 11:12:33;;;;;;;1.90;1.70;;;;;;;26.26;52.18;98219.84;5053194;28;20207;-76
2022/06/06 11:15:03;;;;;;;1.90;1.80;;;;;;;26.72;44.67;98220.88;5055825;28;20209;-76
2022/06/06 11:17:59;;;;;;;1.90;1.80;;;;;;;26.65;47.82;98220.00;5055919;28;20208;-75
2022/06/06 11:20:54;;;;;;;1.77;1.63;;;;;;;26.14;45.38;98220.66;5048634;28;20234;-75
2022/06/06 11:23:22;;;;;;;1.83;1.73;;;;;;;25.91;48.36;98215.50;5047352;28;20212;-76
2022/06/06 11:26:19;;;;;;;1.73;1.60;;;;;;;25.81;50.73;98215.00;5055903;28;20243;-74
2022/06/06 11:29:04;;;;;;;2.53;1.90;;;;;;;25.76;49.66;98211.22;5055988;28;20220;-75
2022/06/06 11:31:48;;;;;;;2.30;2.10;;;;;;;25.71;47.80;98211.81;5055787;28;20216;-75
2022/06/06 11:34:51;;;;;;;2.70;2.03;;;;;;;25.70;47.81;98209.31;5048876;28;20219;-75
2022/06/06 11:37:51;;;;;;;2.07;1.67;;;;;;;25.90;48.37;98197.59;5049911;28;20235;-75
2022/06/06 11:40:46;;;;;;;3.87;1.60;;;;;;;26.24;47.26;98205.69;5049781;28;20212;-75
2022/06/06 11:43:56;;;;;;;1.80;1.70;;;;;;;26.53;45.67;98199.94;5050100;28;20263;-75
2022/06/06 11:47:00;;;;;;;1.60;1.50;;;;;;;26.80;46.11;98195.41;5051353;28;20235;-76
2022/06/06 11:49:45;;;;;;;1.73;1.60;;;;;;;26.88;43.20;98193.34;5050881;28;20218;-74
2022/06/06 11:52:44;;;;;;;2.27;1.77;;;;;;;26.69;44.34;98193.34;5053961;28;20218;-74
2022/06/06 11:55:25;;;;;;;1.83;1.60;;;;;;;26.69;44.78;98188.72;5051304;28;20227;-75
2022/06/06 11:58:27;;;;;;;1.53;1.43;;;;;;;26.79;45.32;98197.31;5048245;28;20262;-75
2022/06/06 12:01:26;;;;;;;1.50;1.40;;;;;;;26.79;46.21;98200.03;5049849;28;20584;-75
2022/06/06 12:04:25;;;;;;;1.60;1.50;;;;;;;26.22;44.33;98201.50;5049042;28;20674;-75
2022/06/06 12:07:22;;;;;;;1.50;1.40;;;;;;;25.81;44.23;98193.34;5045012;28;20219;-74
2022/06/06 12:10:00;;;;;;;1.83;1.53;;;;;;;25.46;46.49;98194.38;5049344;28;20224;-75
2022/06/06 12:12:53;;;;;;;1.60;1.50;;;;;;;25.17;46.73;98199.13;5055038;28;20671;-75
2022/06/06 12:15:54;;;;;;;2.27;1.70;;;;;;;24.71;45.71;98196.00;5053100;28;20220;-76
2022/06/06 12:18:32;;;;;;;2.17;1.67;;;;;;;24.34;47.16;98188.06;5054781;28;20215;-75
2022/06/06 12:21:18;;;;;;;1.70;1.60;;;;;;;24.16;50.76;98189.50;5054936;28;20207;-75
2022/06/06 12:24:07;;;;;;;2.50;1.67;;;;;;;23.89;50.47;98195.63;5054591;28;20218;-74
2022/06/06 12:26:58;;;;;;;2.43;1.90;;;;;;;23.75;49.76;98194.56;5049673;28;20721;-74
2022/06/06 12:29:55;;;;;;;1.80;1.70;;;;;;;24.03;50.21;98184.75;5046981;28;20216;-76
2022/06/06 12:32:43;;;;;;;2.17;1.63;;;;;;;24.51;51.43;98184.09;5054080;28;20219;-75
2022/06/06 12:35:20;;;;;;;1.80;1.70;;;;;;;24.90;48.43;98184.53;5046924;28;20208;-77
2022/06/06 12:37:58;;;;;;;1.70;1.60;;;;;;;25.19;47.53;98180.81;5054597;28;20239;-75
2022/06/06 12:40:45;;;;;;;1.70;1.60;;;;;;;25.55;49.88;98171.50;5052838;28;20415;-75
2022/06/06 12:43:26;;;;;;;1.57;1.47;;;;;;;25.80;46.15;98180.84;5048606;28;20222;-76
2022/06/06 12:46:07;;;;;;;4.03;1.60;;;;;;;25.73;45.81;98174.53;5046783;28;20242;-75
2022/06/06 12:49:05;;;;;;;2.33;1.80;;;;;;;25.73;44.57;98176.44;5054010;28;20207;-75
2022/06/06 12:51:46;;;;;;;1.53;1.43;;;;;;;25.61;45.28;98176.13;5033219;28;20222;-75
2022/06/06 12:54:35;;;;;;;1.70;1.60;;;;;;;25.76;46.67;98179.56;5054471;28;20218;-76
2022/06/06 12:57:07;;;;;;;1.60;1.50;;;;;;;25.92;47.79;98171.13;5048670;28;20670;-75